sensor_id;sensor_type;location;lat;lon;timestamp;P1;durP1;ratioP1;P2;durP2;ratioP2
10503;SDS011;5299;48.704;9.138;2022-09-13T00:01:10;2.05;;;1.30;;
10503;SDS011;5299;48.704;9.138;2022-09-13T00:05:20;3.28;;;1.50;;
10503;SDS011;5299;48.704;9.138;2022-09-13T00:09:34;3.28;;;1.65;;
10503;SDS011;5299;48.704;9.138;2022-09-13T00:13:40;2.63;;;1.40;;
10503;SDS011;5299;48.704;9.138;2022-09-13T00:17:51;3.13;;;1.27;;
10503;SDS011;5299;48.704;9.138;2022-09-13T00:21:56;3.67;;;1.67;;
10503;SDS011;5299;48.704;9.138;2022-09-13T00:26:07;2.03;;;1.30;;
10503;SDS011;5299;48.704;9.138;2022-09-13T00:30:15;4.63;;;1.70;;
10503;SDS011;5299;48.704;9.138;2022-09-13T00:34:27;2.67;;;1.60;;
10503;SDS011;5299;48.704;9.138;2022-09-13T00:38:29;4.63;;;1.48;;
10503;SDS011;5299;48.704;9.138;2022-09-13T00:42:43;2.92;;;1.77;;
10503;SDS011;5299;48.704;9.138;2022-09-13T00:46:47;2.53;;;1.38;;
10503;SDS011;5299;48.704;9.138;2022-09-13T00:50:54;3.80;;;1.65;;
10503;SDS011;5299;48.704;9.138;2022-09-13T00:55:02;1.95;;;0.90;;
10503;SDS011;5299;48.704;9.138;2022-09-13T00:59:16;3.13;;;1.67;;
10503;SDS011;5299;48.704;9.138;2022-09-13T01:03:29;2.17;;;1.05;;
10503;SDS011;5299;48.704;9.138;2022-09-13T01:07:37;2.80;;;1.40;;
10503;SDS011;5299;48.704;9.138;2022-09-13T01:11:46;2.42;;;1.38;;
10503;SDS011;5299;48.704;9.138;2022-09-13T01:15:59;2.25;;;1.60;;
10503;SDS011;5299;48.704;9.138;2022-09-13T01:20:01;1.70;;;1.40;;
10503;SDS011;5299;48.704;9.138;2022-09-13T01:33:11;2.77;;;1.50;;
10503;SDS011;5299;48.704;9.138;2022-09-13T01:42:14;2.30;;;1.58;;
10503;SDS011;5299;48.704;9.138;2022-09-13T01:46:36;2.28;;;1.30;;
10503;SDS011;5299;48.704;9.138;2022-09-13T01:50:59;2.22;;;1.30;;
10503;SDS011;5299;48.704;9.138;2022-09-13T01:55:23;4.63;;;1.70;;
10503;SDS011;5299;48.704;9.138;2022-09-13T02:04:12;3.47;;;2.15;;
10503;SDS011;5299;48.704;9.138;2022-09-13T02:08:38;4.63;;;2.17;;
10503;SDS011;5299;48.704;9.138;2022-09-13T02:12:45;2.92;;;1.63;;
10503;SDS011;5299;48.704;9.138;2022-09-13T02:16:55;3.47;;;2.10;;
10503;SDS011;5299;48.704;9.138;2022-09-13T02:21:14;4.30;;;2.22;;
10503;SDS011;5299;48.704;9.138;2022-09-13T02:25:25;3.85;;;2.28;;
10503;SDS011;5299;48.704;9.138;2022-09-13T02:29:30;3.95;;;2.00;;
10503;SDS011;5299;48.704;9.138;2022-09-13T02:33:44;6.25;;;1.98;;
10503;SDS011;5299;48.704;9.138;2022-09-13T02:37:56;3.75;;;1.58;;
10503;SDS011;5299;48.704;9.138;2022-09-13T02:42:13;3.55;;;1.90;;
10503;SDS011;5299;48.704;9.138;2022-09-13T02:51:14;2.97;;;1.73;;
10503;SDS011;5299;48.704;9.138;2022-09-13T02:59:47;4.40;;;1.98;;
10503;SDS011;5299;48.704;9.138;2022-09-13T03:03:53;3.92;;;1.58;;
10503;SDS011;5299;48.704;9.138;2022-09-13T03:07:59;2.45;;;1.60;;
10503;SDS011;5299;48.704;9.138;2022-09-13T03:26:05;5.30;;;2.15;;
10503;SDS011;5299;48.704;9.138;2022-09-13T03:30:28;3.75;;;2.05;;
10503;SDS011;5299;48.704;9.138;2022-09-13T03:39:34;3.55;;;2.13;;
10503;SDS011;5299;48.704;9.138;2022-09-13T03:43:55;2.75;;;1.90;;
10503;SDS011;5299;48.704;9.138;2022-09-13T03:48:14;4.60;;;1.98;;
10503;SDS011;5299;48.704;9.138;2022-09-13T03:52:24;3.95;;;2.08;;
10503;SDS011;5299;48.704;9.138;2022-09-13T03:56:41;5.93;;;2.35;;
10503;SDS011;5299;48.704;9.138;2022-09-13T04:01:04;3.72;;;2.50;;
10503;SDS011;5299;48.704;9.138;2022-09-13T04:05:25;6.65;;;2.63;;
10503;SDS011;5299;48.704;9.138;2022-09-13T04:09:46;4.78;;;2.97;;
10503;SDS011;5299;48.704;9.138;2022-09-13T04:14:20;6.30;;;2.83;;
10503;SDS011;5299;48.704;9.138;2022-09-13T04:23:28;3.80;;;2.05;;
10503;SDS011;5299;48.704;9.138;2022-09-13T04:27:45;3.28;;;2.03;;
10503;SDS011;5299;48.704;9.138;2022-09-13T04:32:04;5.72;;;2.42;;
10503;SDS011;5299;48.704;9.138;2022-09-13T04:36:23;3.63;;;2.45;;
10503;SDS011;5299;48.704;9.138;2022-09-13T04:40:34;3.90;;;2.13;;
10503;SDS011;5299;48.704;9.138;2022-09-13T04:44:50;3.20;;;2.17;;
10503;SDS011;5299;48.704;9.138;2022-09-13T04:49:02;5.57;;;2.22;;
10503;SDS011;5299;48.704;9.138;2022-09-13T04:53:13;3.38;;;2.03;;
10503;SDS011;5299;48.704;9.138;2022-09-13T04:57:44;6.13;;;2.20;;
10503;SDS011;5299;48.704;9.138;2022-09-13T05:01:48;7.32;;;3.30;;
10503;SDS011;5299;48.704;9.138;2022-09-13T05:06:07;3.95;;;2.00;;
10503;SDS011;5299;48.704;9.138;2022-09-13T05:10:22;5.45;;;3.20;;
10503;SDS011;5299;48.704;9.138;2022-09-13T05:14:40;5.18;;;2.65;;
10503;SDS011;5299;48.704;9.138;2022-09-13T05:18:42;4.00;;;1.92;;
10503;SDS011;5299;48.704;9.138;2022-09-13T05:23:17;8.18;;;2.72;;
10503;SDS011;5299;48.704;9.138;2022-09-13T05:27:52;3.78;;;2.20;;
10503;SDS011;5299;48.704;9.138;2022-09-13T05:31:56;9.48;;;2.92;;
10503;SDS011;5299;48.704;9.138;2022-09-13T05:35:58;8.38;;;3.15;;
10503;SDS011;5299;48.704;9.138;2022-09-13T05:40:01;10.82;;;3.15;;
10503;SDS011;5299;48.704;9.138;2022-09-13T05:44:18;4.18;;;2.22;;
10503;SDS011;5299;48.704;9.138;2022-09-13T05:48:19;6.47;;;2.40;;
10503;SDS011;5299;48.704;9.138;2022-09-13T05:52:21;5.35;;;2.30;;
10503;SDS011;5299;48.704;9.138;2022-09-13T05:56:23;4.45;;;2.20;;
10503;SDS011;5299;48.704;9.138;2022-09-13T06:00:27;10.43;;;2.78;;
10503;SDS011;5299;48.704;9.138;2022-09-13T06:04:28;5.43;;;2.63;;
10503;SDS011;5299;48.704;9.138;2022-09-13T06:08:33;4.05;;;2.25;;
10503;SDS011;5299;48.704;9.138;2022-09-13T06:12:52;3.63;;;2.22;;
10503;SDS011;5299;48.704;9.138;2022-09-13T06:16:56;4.60;;;2.60;;
10503;SDS011;5299;48.704;9.138;2022-09-13T06:21:20;5.78;;;2.42;;
10503;SDS011;5299;48.704;9.138;2022-09-13T06:25:29;6.63;;;2.70;;
10503;SDS011;5299;48.704;9.138;2022-09-13T06:29:31;5.78;;;3.47;;
10503;SDS011;5299;48.704;9.138;2022-09-13T06:33:33;6.18;;;2.88;;
10503;SDS011;5299;48.704;9.138;2022-09-13T06:37:35;5.30;;;3.08;;
10503;SDS011;5299;48.704;9.138;2022-09-13T06:41:36;11.70;;;3.40;;
10503;SDS011;5299;48.704;9.138;2022-09-13T06:45:38;7.32;;;3.80;;
10503;SDS011;5299;48.704;9.138;2022-09-13T06:49:39;13.35;;;4.45;;
10503;SDS011;5299;48.704;9.138;2022-09-13T06:53:41;7.13;;;4.00;;
10503;SDS011;5299;48.704;9.138;2022-09-13T06:57:43;9.70;;;4.35;;
10503;SDS011;5299;48.704;9.138;2022-09-13T07:01:44;9.73;;;5.00;;
10503;SDS011;5299;48.704;9.138;2022-09-13T07:05:47;10.65;;;5.50;;
10503;SDS011;5299;48.704;9.138;2022-09-13T07:09:48;13.43;;;5.80;;
10503;SDS011;5299;48.704;9.138;2022-09-13T07:13:53;14.00;;;6.25;;
10503;SDS011;5299;48.704;9.138;2022-09-13T07:17:55;18.58;;;6.18;;
10503;SDS011;5299;48.704;9.138;2022-09-13T07:21:57;24.50;;;6.63;;
10503;SDS011;5299;48.704;9.138;2022-09-13T07:25:58;25.15;;;5.28;;
10503;SDS011;5299;48.704;9.138;2022-09-13T07:30:04;17.98;;;6.85;;
10503;SDS011;5299;48.704;9.138;2022-09-13T07:34:11;18.88;;;6.35;;
10503;SDS011;5299;48.704;9.138;2022-09-13T07:38:14;14.57;;;5.82;;
10503;SDS011;5299;48.704;9.138;2022-09-13T07:42:15;13.05;;;5.63;;
10503;SDS011;5299;48.704;9.138;2022-09-13T07:46:23;12.38;;;4.95;;
10503;SDS011;5299;48.704;9.138;2022-09-13T07:50:25;13.98;;;4.70;;
10503;SDS011;5299;48.704;9.138;2022-09-13T07:54:27;12.95;;;3.88;;
10503;SDS011;5299;48.704;9.138;2022-09-13T07:58:29;12.27;;;3.95;;
10503;SDS011;5299;48.704;9.138;2022-09-13T08:02:30;8.80;;;4.88;;
10503;SDS011;5299;48.704;9.138;2022-09-13T08:06:33;7.50;;;4.25;;
10503;SDS011;5299;48.704;9.138;2022-09-13T08:10:35;10.82;;;3.40;;
10503;SDS011;5299;48.704;9.138;2022-09-13T08:14:37;5.55;;;3.45;;
10503;SDS011;5299;48.704;9.138;2022-09-13T08:18:42;11.68;;;3.38;;
10503;SDS011;5299;48.704;9.138;2022-09-13T08:22:45;10.43;;;2.90;;
10503;SDS011;5299;48.704;9.138;2022-09-13T08:26:47;9.25;;;3.28;;
10503;SDS011;5299;48.704;9.138;2022-09-13T08:30:48;6.88;;;2.55;;
10503;SDS011;5299;48.704;9.138;2022-09-13T08:34:50;12.50;;;2.90;;
10503;SDS011;5299;48.704;9.138;2022-09-13T08:38:53;8.93;;;3.00;;
10503;SDS011;5299;48.704;9.138;2022-09-13T08:51:31;8.93;;;2.63;;
10503;SDS011;5299;48.704;9.138;2022-09-13T08:55:45;11.90;;;2.70;;
10503;SDS011;5299;48.704;9.138;2022-09-13T09:00:05;7.47;;;2.53;;
10503;SDS011;5299;48.704;9.138;2022-09-13T09:08:36;6.35;;;2.13;;
10503;SDS011;5299;48.704;9.138;2022-09-13T09:12:51;3.95;;;1.60;;
10503;SDS011;5299;48.704;9.138;2022-09-13T09:17:06;8.05;;;1.90;;
10503;SDS011;5299;48.704;9.138;2022-09-13T09:21:16;5.65;;;1.65;;
10503;SDS011;5299;48.704;9.138;2022-09-13T09:25:18;5.13;;;1.45;;
10503;SDS011;5299;48.704;9.138;2022-09-13T09:29:25;2.63;;;1.25;;
10503;SDS011;5299;48.704;9.138;2022-09-13T09:33:44;3.37;;;1.50;;
10503;SDS011;5299;48.704;9.138;2022-09-13T09:38:31;13.82;;;2.58;;
10503;SDS011;5299;48.704;9.138;2022-09-13T09:42:44;2.92;;;1.58;;
10503;SDS011;5299;48.704;9.138;2022-09-13T09:46:48;5.43;;;1.40;;
10503;SDS011;5299;48.704;9.138;2022-09-13T09:50:53;2.78;;;1.40;;
10503;SDS011;5299;48.704;9.138;2022-09-13T09:55:00;4.00;;;1.15;;
10503;SDS011;5299;48.704;9.138;2022-09-13T09:59:23;4.60;;;1.50;;
10503;SDS011;5299;48.704;9.138;2022-09-13T10:03:27;2.83;;;1.02;;
10503;SDS011;5299;48.704;9.138;2022-09-13T10:07:30;2.72;;;1.08;;
10503;SDS011;5299;48.704;9.138;2022-09-13T10:11:43;5.30;;;0.85;;
10503;SDS011;5299;48.704;9.138;2022-09-13T10:15:57;3.15;;;1.65;;
10503;SDS011;5299;48.704;9.138;2022-09-13T10:20:01;3.63;;;0.85;;
10503;SDS011;5299;48.704;9.138;2022-09-13T10:24:16;3.80;;;0.93;;
10503;SDS011;5299;48.704;9.138;2022-09-13T10:28:20;10.75;;;2.17;;
10503;SDS011;5299;48.704;9.138;2022-09-13T10:32:22;4.35;;;1.30;;
10503;SDS011;5299;48.704;9.138;2022-09-13T10:36:25;4.60;;;1.08;;
10503;SDS011;5299;48.704;9.138;2022-09-13T10:40:49;3.45;;;1.00;;
10503;SDS011;5299;48.704;9.138;2022-09-13T10:45:02;5.03;;;1.13;;
10503;SDS011;5299;48.704;9.138;2022-09-13T10:49:08;1.98;;;0.90;;
10503;SDS011;5299;48.704;9.138;2022-09-13T10:53:46;2.10;;;0.80;;
10503;SDS011;5299;48.704;9.138;2022-09-13T11:10:47;3.25;;;1.33;;
10503;SDS011;5299;48.704;9.138;2022-09-13T11:32:51;2.95;;;0.70;;
10503;SDS011;5299;48.704;9.138;2022-09-13T11:45:25;0.60;;;0.40;;
10503;SDS011;5299;48.704;9.138;2022-09-13T11:58:04;0.82;;;0.55;;
10503;SDS011;5299;48.704;9.138;2022-09-13T12:02:28;1.17;;;0.40;;
10503;SDS011;5299;48.704;9.138;2022-09-13T12:06:36;2.58;;;0.40;;
10503;SDS011;5299;48.704;9.138;2022-09-13T12:10:51;1.95;;;0.40;;
10503;SDS011;5299;48.704;9.138;2022-09-13T12:14:59;6.63;;;0.52;;
10503;SDS011;5299;48.704;9.138;2022-09-13T12:23:16;0.95;;;0.52;;
10503;SDS011;5299;48.704;9.138;2022-09-13T12:31:25;5.78;;;0.82;;
10503;SDS011;5299;48.704;9.138;2022-09-13T12:35:31;1.25;;;0.60;;
10503;SDS011;5299;48.704;9.138;2022-09-13T12:44:07;3.65;;;0.57;;
10503;SDS011;5299;48.704;9.138;2022-09-13T12:52:41;2.30;;;0.50;;
10503;SDS011;5299;48.704;9.138;2022-09-13T13:05:00;3.28;;;0.70;;
10503;SDS011;5299;48.704;9.138;2022-09-13T13:09:21;1.23;;;0.43;;
10503;SDS011;5299;48.704;9.138;2022-09-13T13:13:52;1.42;;;0.60;;
10503;SDS011;5299;48.704;9.138;2022-09-13T13:30:51;3.67;;;0.68;;
10503;SDS011;5299;48.704;9.138;2022-09-13T13:34:54;1.48;;;0.63;;
10503;SDS011;5299;48.704;9.138;2022-09-13T13:38:56;2.17;;;0.50;;
10503;SDS011;5299;48.704;9.138;2022-09-13T13:47:41;1.77;;;0.65;;
10503;SDS011;5299;48.704;9.138;2022-09-13T13:52:54;0.90;;;0.40;;
10503;SDS011;5299;48.704;9.138;2022-09-13T14:00:51;2.58;;;0.50;;
10503;SDS011;5299;48.704;9.138;2022-09-13T14:09:22;3.78;;;0.57;;
10503;SDS011;5299;48.704;9.138;2022-09-13T14:14:28;1.90;;;0.50;;
10503;SDS011;5299;48.704;9.138;2022-09-13T14:23:17;3.80;;;0.40;;
10503;SDS011;5299;48.704;9.138;2022-09-13T14:27:26;1.17;;;0.30;;
10503;SDS011;5299;48.704;9.138;2022-09-13T14:31:30;0.82;;;0.47;;
10503;SDS011;5299;48.704;9.138;2022-09-13T14:39:37;2.50;;;0.50;;
10503;SDS011;5299;48.704;9.138;2022-09-13T14:43:39;1.27;;;0.40;;
10503;SDS011;5299;48.704;9.138;2022-09-13T14:47:45;3.15;;;0.40;;
10503;SDS011;5299;48.704;9.138;2022-09-13T14:51:49;1.70;;;0.40;;
10503;SDS011;5299;48.704;9.138;2022-09-13T14:55:53;1.85;;;0.47;;
10503;SDS011;5299;48.704;9.138;2022-09-13T14:59:57;2.85;;;0.60;;
10503;SDS011;5299;48.704;9.138;2022-09-13T15:04:02;2.95;;;0.43;;
10503;SDS011;5299;48.704;9.138;2022-09-13T15:12:34;1.00;;;0.30;;
10503;SDS011;5299;48.704;9.138;2022-09-13T15:16:45;2.50;;;0.75;;
10503;SDS011;5299;48.704;9.138;2022-09-13T15:21:01;3.10;;;0.77;;
10503;SDS011;5299;48.704;9.138;2022-09-13T15:25:16;1.83;;;0.60;;
10503;SDS011;5299;48.704;9.138;2022-09-13T15:29:20;0.68;;;0.47;;
10503;SDS011;5299;48.704;9.138;2022-09-13T15:37:31;5.78;;;0.50;;
10503;SDS011;5299;48.704;9.138;2022-09-13T15:41:39;1.77;;;0.32;;
10503;SDS011;5299;48.704;9.138;2022-09-13T15:45:41;3.67;;;0.52;;
10503;SDS011;5299;48.704;9.138;2022-09-13T15:49:47;2.00;;;0.70;;
10503;SDS011;5299;48.704;9.138;2022-09-13T15:53:51;2.50;;;0.38;;
10503;SDS011;5299;48.704;9.138;2022-09-13T15:57:52;3.85;;;0.57;;
10503;SDS011;5299;48.704;9.138;2022-09-13T16:01:56;1.20;;;0.55;;
10503;SDS011;5299;48.704;9.138;2022-09-13T16:05:58;2.28;;;0.73;;
10503;SDS011;5299;48.704;9.138;2022-09-13T16:10:00;1.77;;;0.50;;
10503;SDS011;5299;48.704;9.138;2022-09-13T16:14:02;1.35;;;0.60;;
10503;SDS011;5299;48.704;9.138;2022-09-13T16:18:03;3.25;;;0.50;;
10503;SDS011;5299;48.704;9.138;2022-09-13T16:22:05;1.75;;;0.60;;
10503;SDS011;5299;48.704;9.138;2022-09-13T16:26:12;1.88;;;0.60;;
10503;SDS011;5299;48.704;9.138;2022-09-13T16:30:15;3.00;;;0.70;;
10503;SDS011;5299;48.704;9.138;2022-09-13T16:34:18;1.20;;;0.60;;
10503;SDS011;5299;48.704;9.138;2022-09-13T16:38:22;2.25;;;0.80;;
10503;SDS011;5299;48.704;9.138;2022-09-13T16:43:28;1.88;;;0.60;;
10503;SDS011;5299;48.704;9.138;2022-09-13T16:47:40;5.68;;;0.90;;
10503;SDS011;5299;48.704;9.138;2022-09-13T16:51:43;2.17;;;0.70;;
10503;SDS011;5299;48.704;9.138;2022-09-13T16:55:51;2.60;;;1.05;;
10503;SDS011;5299;48.704;9.138;2022-09-13T16:59:53;2.85;;;0.90;;
10503;SDS011;5299;48.704;9.138;2022-09-13T17:04:01;2.53;;;1.42;;
10503;SDS011;5299;48.704;9.138;2022-09-13T17:08:08;3.45;;;1.42;;
10503;SDS011;5299;48.704;9.138;2022-09-13T17:12:21;3.00;;;0.90;;
10503;SDS011;5299;48.704;9.138;2022-09-13T17:16:25;2.72;;;1.20;;
10503;SDS011;5299;48.704;9.138;2022-09-13T17:20:28;2.13;;;1.10;;
10503;SDS011;5299;48.704;9.138;2022-09-13T17:24:30;2.30;;;1.15;;
10503;SDS011;5299;48.704;9.138;2022-09-13T17:28:32;3.35;;;1.02;;
10503;SDS011;5299;48.704;9.138;2022-09-13T17:32:37;2.85;;;0.85;;
10503;SDS011;5299;48.704;9.138;2022-09-13T17:36:47;2.45;;;0.95;;
10503;SDS011;5299;48.704;9.138;2022-09-13T17:41:01;2.60;;;0.90;;
10503;SDS011;5299;48.704;9.138;2022-09-13T17:45:09;5.47;;;0.70;;
10503;SDS011;5299;48.704;9.138;2022-09-13T17:49:11;2.22;;;0.82;;
10503;SDS011;5299;48.704;9.138;2022-09-13T17:53:12;3.08;;;0.98;;
10503;SDS011;5299;48.704;9.138;2022-09-13T17:57:14;1.42;;;0.70;;
10503;SDS011;5299;48.704;9.138;2022-09-13T18:01:18;4.40;;;1.00;;
10503;SDS011;5299;48.704;9.138;2022-09-13T18:05:19;2.60;;;1.13;;
10503;SDS011;5299;48.704;9.138;2022-09-13T18:09:21;2.53;;;0.70;;
10503;SDS011;5299;48.704;9.138;2022-09-13T18:13:23;4.30;;;1.20;;
10503;SDS011;5299;48.704;9.138;2022-09-13T18:17:24;3.00;;;0.90;;
10503;SDS011;5299;48.704;9.138;2022-09-13T18:21:30;5.10;;;1.42;;
10503;SDS011;5299;48.704;9.138;2022-09-13T18:25:36;3.85;;;1.38;;
10503;SDS011;5299;48.704;9.138;2022-09-13T18:29:49;4.30;;;1.30;;
10503;SDS011;5299;48.704;9.138;2022-09-13T18:33:58;3.03;;;1.20;;
10503;SDS011;5299;48.704;9.138;2022-09-13T18:38:10;3.58;;;1.25;;
10503;SDS011;5299;48.704;9.138;2022-09-13T18:42:12;4.50;;;1.20;;
10503;SDS011;5299;48.704;9.138;2022-09-13T18:46:15;3.50;;;1.23;;
10503;SDS011;5299;48.704;9.138;2022-09-13T18:50:20;3.03;;;1.10;;
10503;SDS011;5299;48.704;9.138;2022-09-13T18:54:21;2.65;;;1.30;;
10503;SDS011;5299;48.704;9.138;2022-09-13T18:58:23;5.65;;;1.48;;
10503;SDS011;5299;48.704;9.138;2022-09-13T19:02:24;3.63;;;1.52;;
10503;SDS011;5299;48.704;9.138;2022-09-13T19:06:28;5.93;;;1.50;;
10503;SDS011;5299;48.704;9.138;2022-09-13T19:10:32;4.18;;;1.50;;
10503;SDS011;5299;48.704;9.138;2022-09-13T19:14:33;7.78;;;1.48;;
10503;SDS011;5299;48.704;9.138;2022-09-13T19:18:39;6.82;;;1.92;;
10503;SDS011;5299;48.704;9.138;2022-09-13T19:23:01;7.60;;;1.80;;
10503;SDS011;5299;48.704;9.138;2022-09-13T19:27:16;6.90;;;2.47;;
10503;SDS011;5299;48.704;9.138;2022-09-13T19:31:41;8.18;;;4.75;;
10503;SDS011;5299;48.704;9.138;2022-09-13T19:36:23;8.90;;;4.50;;
10503;SDS011;5299;48.704;9.138;2022-09-13T19:41:06;4.63;;;2.28;;
10503;SDS011;5299;48.704;9.138;2022-09-13T19:55:27;5.95;;;2.63;;
10503;SDS011;5299;48.704;9.138;2022-09-13T20:00:18;2.92;;;1.40;;
10503;SDS011;5299;48.704;9.138;2022-09-13T20:04:37;6.13;;;2.17;;
10503;SDS011;5299;48.704;9.138;2022-09-13T20:09:30;4.95;;;1.95;;
10503;SDS011;5299;48.704;9.138;2022-09-13T20:13:52;8.48;;;2.25;;
10503;SDS011;5299;48.704;9.138;2022-09-13T20:18:40;3.35;;;1.65;;
10503;SDS011;5299;48.704;9.138;2022-09-13T20:23:33;4.97;;;1.70;;
10503;SDS011;5299;48.704;9.138;2022-09-13T20:28:14;4.25;;;1.83;;
10503;SDS011;5299;48.704;9.138;2022-09-13T20:32:42;7.65;;;1.85;;
10503;SDS011;5299;48.704;9.138;2022-09-13T20:37:08;3.97;;;1.77;;
10503;SDS011;5299;48.704;9.138;2022-09-13T20:41:47;5.20;;;1.75;;
10503;SDS011;5299;48.704;9.138;2022-09-13T20:46:10;3.67;;;1.73;;
10503;SDS011;5299;48.704;9.138;2022-09-13T20:50:20;3.70;;;1.33;;
10503;SDS011;5299;48.704;9.138;2022-09-13T20:54:56;6.03;;;1.05;;
10503;SDS011;5299;48.704;9.138;2022-09-13T21:04:43;8.15;;;1.70;;
10503;SDS011;5299;48.704;9.138;2022-09-13T21:09:02;2.05;;;1.20;;
10503;SDS011;5299;48.704;9.138;2022-09-13T21:13:31;4.90;;;1.33;;
10503;SDS011;5299;48.704;9.138;2022-09-13T21:18:10;6.47;;;1.60;;
10503;SDS011;5299;48.704;9.138;2022-09-13T21:22:37;5.25;;;1.50;;
10503;SDS011;5299;48.704;9.138;2022-09-13T21:27:23;8.90;;;1.55;;
10503;SDS011;5299;48.704;9.138;2022-09-13T21:36:12;10.35;;;4.40;;
10503;SDS011;5299;48.704;9.138;2022-09-13T21:40:41;4.55;;;2.28;;
10503;SDS011;5299;48.704;9.138;2022-09-13T21:45:13;7.85;;;2.38;;
10503;SDS011;5299;48.704;9.138;2022-09-13T21:49:45;6.13;;;1.90;;
10503;SDS011;5299;48.704;9.138;2022-09-13T21:54:06;6.28;;;2.00;;
10503;SDS011;5299;48.704;9.138;2022-09-13T21:58:32;6.10;;;1.90;;
10503;SDS011;5299;48.704;9.138;2022-09-13T22:02:45;7.00;;;1.67;;
10503;SDS011;5299;48.704;9.138;2022-09-13T22:07:07;6.03;;;2.63;;
10503;SDS011;5299;48.704;9.138;2022-09-13T22:11:30;3.58;;;2.05;;
10503;SDS011;5299;48.704;9.138;2022-09-13T22:16:03;3.37;;;1.63;;
10503;SDS011;5299;48.704;9.138;2022-09-13T22:20:42;8.73;;;3.17;;
10503;SDS011;5299;48.704;9.138;2022-09-13T22:25:00;5.15;;;2.45;;
10503;SDS011;5299;48.704;9.138;2022-09-13T22:29:21;4.22;;;1.98;;
10503;SDS011;5299;48.704;9.138;2022-09-13T22:33:28;3.63;;;1.50;;
10503;SDS011;5299;48.704;9.138;2022-09-13T22:37:49;5.05;;;1.40;;
10503;SDS011;5299;48.704;9.138;2022-09-13T22:42:27;3.72;;;1.40;;
10503;SDS011;5299;48.704;9.138;2022-09-13T22:47:06;4.25;;;1.75;;
10503;SDS011;5299;48.704;9.138;2022-09-13T22:51:38;2.88;;;1.52;;
10503;SDS011;5299;48.704;9.138;2022-09-13T23:00:40;3.53;;;1.70;;
10503;SDS011;5299;48.704;9.138;2022-09-13T23:04:59;3.63;;;1.50;;
10503;SDS011;5299;48.704;9.138;2022-09-13T23:09:10;5.45;;;1.60;;
10503;SDS011;5299;48.704;9.138;2022-09-13T23:13:32;4.90;;;2.08;;
10503;SDS011;5299;48.704;9.138;2022-09-13T23:17:56;6.10;;;1.58;;
10503;SDS011;5299;48.704;9.138;2022-09-13T23:22:10;4.95;;;1.60;;
10503;SDS011;5299;48.704;9.138;2022-09-13T23:26:28;6.15;;;2.40;;
10503;SDS011;5299;48.704;9.138;2022-09-13T23:31:06;5.93;;;2.15;;
10503;SDS011;5299;48.704;9.138;2022-09-13T23:35:31;3.58;;;1.40;;
10503;SDS011;5299;48.704;9.138;2022-09-13T23:39:45;5.70;;;2.05;;
10503;SDS011;5299;48.704;9.138;2022-09-13T23:44:10;6.43;;;2.30;;
10503;SDS011;5299;48.704;9.138;2022-09-13T23:48:42;4.95;;;2.03;;
10503;SDS011;5299;48.704;9.138;2022-09-13T23:52:57;3.53;;;1.90;;
10503;SDS011;5299;48.704;9.138;2022-09-13T23:57:06;5.38;;;1.60;;
